Christopher Myskowski — WDG8768 — position and weather

sailwx.info

Track history (hours):
 
Tides and Currents Weather Stations Pressure Air Temp Water Temp Dewpoint Dewpoint Depression Visibility Wind Speed Wind Dir Waves Ship Positions

Christopher Myskowski

Owner: Marquette Transportation Co. LLC, Paducah, KY. More information available from US FCC via Universal Licensing System and Coast Guard Vessel Documentation Center.

Last reported at 2018-May-15 14:20 UTC. Time now 2018-May-26 21:44 UTC.
Position N 38°55' W 090°40'.
Warning: this ship's position is 11 days out of date.

Length 45 m; draft 2.7 m.

Type: Towing. MMSI: 367580880.

Date/timePositionNaut miles runAvg speedWind from/ knotsBaromVisibWave heightAir tempDewpointWater temp
2018-May-15 14:20N 38°55' W 090°40'1 2.3
2018-May-15 14:00N 38°55' W 090°39'3 5.9
2018-May-15 13:30N 38°52' W 090°37'3 5.7
2018-May-15 13:00N 38°52' W 090°33'3 5.7
2018-May-15 12:30N 38°55' W 090°31'3 5.8
2018-May-15 12:00N 38°57' W 090°29'1 1.4
2018-May-15 11:30N 38°57' W 090°28'1 1.4
2018-May-15 11:00N 38°57' W 090°27'3 6.0
2018-May-15 10:30N 38°58' W 090°23'3 6.3
2018-May-15 10:00N 38°56' W 090°20'3 6.0
2018-May-15 09:30N 38°55' W 090°16'3 5.6
2018-May-15 09:00N 38°54' W 090°13'2 4.1
2018-May-15 08:30N 38°53' W 090°11'2 3.1
2018-May-15 08:00N 38°52' W 090°09'1 1.3
2018-May-15 07:30N 38°52' W 090°08'1 1.4
2018-May-15 07:00N 38°51' W 090°08'0 0.0
2018-May-15 06:30N 38°51' W 090°08'0 0.0
2018-May-15 06:00N 38°51' W 090°08'0 0.0
2018-May-15 05:30N 38°51' W 090°08'0 0.0
2018-May-15 05:00N 38°51' W 090°08'0 0.0
2018-May-15 04:30N 38°51' W 090°08'0 0.0
2018-May-15 04:00N 38°51' W 090°08'0 0.0
2018-May-15 03:30N 38°51' W 090°08'1 2.5
2018-May-15 03:00N 38°51' W 090°06'4 7.1
2018-May-15 02:29N 38°47' W 090°08'3 2.1
2018-May-15 00:57N 38°44' W 090°09'2 5.3
2018-May-15 00:30N 38°42' W 090°11'0 0.0
2018-May-14 23:59N 38°42' W 090°11'0 0.0
2018-May-14 23:30N 38°42' W 090°11'1 0.8
2018-May-14 22:37N 38°41' W 090°11'0 4.4
2018-May-14 22:30N 38°41' W 090°11'  
2018-May-08 23:52N 38°33' W 090°15'410.4
2018-May-08 23:28N 38°36' W 090°12'4 9.7
2018-May-08 23:00N 38°40' W 090°11'2 3.1
2018-May-08 22:27N 38°42' W 090°11'0 1.1
2018-May-08 22:00N 38°43' W 090°11'1 2.8
2018-May-08 21:29N 38°44' W 090°10'0 0.7
2018-May-08 21:00N 38°44' W 090°09'0 0.0
2018-May-08 20:30N 38°44' W 090°09'0 0.0
2018-May-08 20:00N 38°44' W 090°09'0 0.0
2018-May-08 19:30N 38°44' W 090°09'0 0.0
2018-May-08 19:00N 38°44' W 090°09'0 0.0
2018-May-08 18:30N 38°44' W 090°09'0 0.0
2018-May-08 18:00N 38°44' W 090°09'0 0.9
2018-May-08 17:30N 38°45' W 090°09'2 4.0
2018-May-08 16:55N 38°47' W 090°08'2 5.7
2018-May-08 16:30N 38°49' W 090°07'3 6.6
2018-May-08 16:00N 38°52' W 090°09'0 0.2
2018-May-08 15:30N 38°52' W 090°09'0 0.0
2018-May-08 15:00N 38°52' W 090°09'0 0.0
2018-May-08 14:30N 38°52' W 090°09'0 0.0
2018-May-08 13:58N 38°52' W 090°09'0 0.0
2018-May-08 13:30N 38°52' W 090°09'0 0.9
2018-May-08 13:00N 38°52' W 090°09'1 2.8
2018-May-08 12:30N 38°53' W 090°11'3 5.7
2018-May-08 12:00N 38°55' W 090°14'0 0.2
2018-May-08 11:30N 38°55' W 090°13'0 0.0
2018-May-08 11:00N 38°55' W 090°13'0 0.0
2018-May-08 10:30N 38°55' W 090°13'0 0.0
2018-May-08 10:00N 38°55' W 090°13'0 0.0
2018-May-08 09:30N 38°55' W 090°13'0 0.1
2018-May-08 09:00N 38°55' W 090°13'2 4.5
2018-May-08 08:30N 38°55' W 090°16'4 7.2
2018-May-08 08:00N 38°56' W 090°21'4 7.4
2018-May-08 07:30N 38°58' W 090°25'4 7.0
2018-May-08 07:00N 38°56' W 090°29'4 7.4
2018-May-08 06:30N 38°53' W 090°32'4 7.2
2018-May-08 06:00N 38°52' W 090°36'4 7.3
2018-May-08 05:30N 38°55' W 090°39'4 7.8
2018-May-08 04:59N 38°59' W 090°40'2 3.2
2018-May-08 04:30N 39°00' W 090°41'0 0.0
2018-May-08 04:00N 39°00' W 090°41'0 0.2
2018-May-08 03:30N 39°00' W 090°41'0 0.1
2018-May-08 03:00N 39°00' W 090°42'1 2.1
2018-May-08 02:30N 39°01' W 090°42'4 6.3
2018-May-08 01:50N 39°06' W 090°41'2 7.5
2018-May-08 01:30N 39°08' W 090°42'  
Track history (hours):
 
Tides and Currents Weather Stations Pressure Air Temp Water Temp Dewpoint Dewpoint Depression Visibility Wind Speed Wind Dir Waves Ship Positions

Christopher Myskowski

Owner: Marquette Transportation Co. LLC, Paducah, KY. More information available from US FCC via Universal Licensing System and Coast Guard Vessel Documentation Center.

Last reported at 2018-May-15 14:20 UTC. Time now 2018-May-26 21:44 UTC.
Position N 38°55' W 090°40'.
Warning: this ship's position is 11 days out of date.

Length 45 m; draft 2.7 m.

Type: Towing. MMSI: 367580880.

Date/timePositionNaut miles runAvg speedWind from/ knotsBaromVisibWave heightAir tempDewpointWater temp
2018-May-15 14:20N 38°55' W 090°40'1 2.3
2018-May-15 14:00N 38°55' W 090°39'3 5.9
2018-May-15 13:30N 38°52' W 090°37'3 5.7
2018-May-15 13:00N 38°52' W 090°33'3 5.7
2018-May-15 12:30N 38°55' W 090°31'3 5.8
2018-May-15 12:00N 38°57' W 090°29'1 1.4
2018-May-15 11:30N 38°57' W 090°28'1 1.4
2018-May-15 11:00N 38°57' W 090°27'3 6.0
2018-May-15 10:30N 38°58' W 090°23'3 6.3
2018-May-15 10:00N 38°56' W 090°20'3 6.0
2018-May-15 09:30N 38°55' W 090°16'3 5.6
2018-May-15 09:00N 38°54' W 090°13'2 4.1
2018-May-15 08:30N 38°53' W 090°11'2 3.1
2018-May-15 08:00N 38°52' W 090°09'1 1.3
2018-May-15 07:30N 38°52' W 090°08'1 1.4
2018-May-15 07:00N 38°51' W 090°08'0 0.0
2018-May-15 06:30N 38°51' W 090°08'0 0.0
2018-May-15 06:00N 38°51' W 090°08'0 0.0
2018-May-15 05:30N 38°51' W 090°08'0 0.0
2018-May-15 05:00N 38°51' W 090°08'0 0.0
2018-May-15 04:30N 38°51' W 090°08'0 0.0
2018-May-15 04:00N 38°51' W 090°08'0 0.0
2018-May-15 03:30N 38°51' W 090°08'1 2.5
2018-May-15 03:00N 38°51' W 090°06'4 7.1
2018-May-15 02:29N 38°47' W 090°08'3 2.1
2018-May-15 00:57N 38°44' W 090°09'2 5.3
2018-May-15 00:30N 38°42' W 090°11'0 0.0
2018-May-14 23:59N 38°42' W 090°11'0 0.0
2018-May-14 23:30N 38°42' W 090°11'1 0.8
2018-May-14 22:37N 38°41' W 090°11'0 4.4
2018-May-14 22:30N 38°41' W 090°11'  
2018-May-08 23:52N 38°33' W 090°15'410.4
2018-May-08 23:28N 38°36' W 090°12'4 9.7
2018-May-08 23:00N 38°40' W 090°11'2 3.1
2018-May-08 22:27N 38°42' W 090°11'0 1.1
2018-May-08 22:00N 38°43' W 090°11'1 2.8
2018-May-08 21:29N 38°44' W 090°10'0 0.7
2018-May-08 21:00N 38°44' W 090°09'0 0.0
2018-May-08 20:30N 38°44' W 090°09'0 0.0
2018-May-08 20:00N 38°44' W 090°09'0 0.0
2018-May-08 19:30N 38°44' W 090°09'0 0.0
2018-May-08 19:00N 38°44' W 090°09'0 0.0
2018-May-08 18:30N 38°44' W 090°09'0 0.0
2018-May-08 18:00N 38°44' W 090°09'0 0.9
2018-May-08 17:30N 38°45' W 090°09'2 4.0
2018-May-08 16:55N 38°47' W 090°08'2 5.7
2018-May-08 16:30N 38°49' W 090°07'3 6.6
2018-May-08 16:00N 38°52' W 090°09'0 0.2
2018-May-08 15:30N 38°52' W 090°09'0 0.0
2018-May-08 15:00N 38°52' W 090°09'0 0.0
2018-May-08 14:30N 38°52' W 090°09'0 0.0
2018-May-08 13:58N 38°52' W 090°09'0 0.0
2018-May-08 13:30N 38°52' W 090°09'0 0.9
2018-May-08 13:00N 38°52' W 090°09'1 2.8
2018-May-08 12:30N 38°53' W 090°11'3 5.7
2018-May-08 12:00N 38°55' W 090°14'0 0.2
2018-May-08 11:30N 38°55' W 090°13'0 0.0
2018-May-08 11:00N 38°55' W 090°13'0 0.0
2018-May-08 10:30N 38°55' W 090°13'0 0.0
2018-May-08 10:00N 38°55' W 090°13'0 0.0
2018-May-08 09:30N 38°55' W 090°13'0 0.1
2018-May-08 09:00N 38°55' W 090°13'2 4.5
2018-May-08 08:30N 38°55' W 090°16'4 7.2
2018-May-08 08:00N 38°56' W 090°21'4 7.4
2018-May-08 07:30N 38°58' W 090°25'4 7.0
2018-May-08 07:00N 38°56' W 090°29'4 7.4
2018-May-08 06:30N 38°53' W 090°32'4 7.2
2018-May-08 06:00N 38°52' W 090°36'4 7.3
2018-May-08 05:30N 38°55' W 090°39'4 7.8
2018-May-08 04:59N 38°59' W 090°40'2 3.2
2018-May-08 04:30N 39°00' W 090°41'0 0.0
2018-May-08 04:00N 39°00' W 090°41'0 0.2
2018-May-08 03:30N 39°00' W 090°41'0 0.1
2018-May-08 03:00N 39°00' W 090°42'1 2.1
2018-May-08 02:30N 39°01' W 090°42'4 6.3
2018-May-08 01:50N 39°06' W 090°41'2 7.5
2018-May-08 01:30N 39°08' W 090°42'  

Dump ship's entire track history